createdAt,value
2023-05-07T00:00:15.559Z,982.84
2023-05-07T00:01:15.317Z,982.91
2023-05-07T00:02:15.301Z,982.91
2023-05-07T00:03:15.397Z,982.94
2023-05-07T00:04:15.472Z,982.96
2023-05-07T00:05:15.662Z,982.94
2023-05-07T00:06:15.252Z,982.94
2023-05-07T00:07:15.252Z,982.96
2023-05-07T00:08:15.340Z,982.96
2023-05-07T00:09:15.210Z,982.96
2023-05-07T00:10:15.216Z,982.94
2023-05-07T00:11:15.204Z,982.92
2023-05-07T00:12:15.176Z,982.95
2023-05-07T00:13:15.214Z,982.89
2023-05-07T00:14:15.190Z,983.02
2023-05-07T00:15:15.159Z,982.97
2023-05-07T00:16:15.169Z,982.98
2023-05-07T00:17:15.134Z,983.00
2023-05-07T00:18:15.131Z,983.04
2023-05-07T00:19:15.114Z,983.08
2023-05-07T00:20:15.114Z,983.07
2023-05-07T00:21:15.098Z,983.06
2023-05-07T00:22:15.074Z,983.09
2023-05-07T00:23:15.070Z,983.04
2023-05-07T00:24:15.084Z,983.02
2023-05-07T00:25:15.058Z,983.03
2023-05-07T00:26:15.062Z,982.99
2023-05-07T00:27:15.027Z,983.00
2023-05-07T00:28:15.042Z,982.96
2023-05-07T00:29:14.994Z,982.96
2023-05-07T00:30:15.000Z,982.90
2023-05-07T00:31:15.003Z,982.88
2023-05-07T00:32:15.106Z,982.91
2023-05-07T00:33:14.964Z,982.93
2023-05-07T00:34:14.970Z,982.94
2023-05-07T00:35:14.965Z,982.91
2023-05-07T00:36:14.932Z,982.94
2023-05-07T00:37:14.924Z,982.90
2023-05-07T00:38:14.905Z,982.93
2023-05-07T00:39:15.108Z,982.90
2023-05-07T00:40:14.884Z,982.92
2023-05-07T00:41:14.876Z,982.84
2023-05-07T00:42:14.860Z,982.88
2023-05-07T00:43:14.854Z,982.81
2023-05-07T00:44:14.854Z,982.82
2023-05-07T00:45:14.816Z,982.85
2023-05-07T00:46:14.872Z,982.80
2023-05-07T00:47:14.806Z,982.83
2023-05-07T00:48:15.251Z,982.81
2023-05-07T00:49:14.785Z,982.80
2023-05-07T00:50:14.851Z,982.81
2023-05-07T00:51:14.776Z,982.80
2023-05-07T00:52:14.757Z,982.80
2023-05-07T00:53:14.725Z,982.83
2023-05-07T00:54:14.736Z,982.81
2023-05-07T00:55:14.748Z,982.75
2023-05-07T00:56:14.717Z,982.77
2023-05-07T00:57:14.712Z,982.79
2023-05-07T00:58:14.690Z,982.75
2023-05-07T00:59:14.733Z,982.76
2023-05-07T01:00:14.935Z,982.74
2023-05-07T01:01:14.771Z,982.82
2023-05-07T01:02:14.828Z,982.72
2023-05-07T01:03:14.670Z,982.71
2023-05-07T01:04:14.681Z,982.76
2023-05-07T01:05:14.594Z,982.74
2023-05-07T01:06:14.606Z,982.76
2023-05-07T01:07:14.602Z,982.74
2023-05-07T01:08:14.572Z,982.72
2023-05-07T01:09:14.565Z,982.72
2023-05-07T01:10:14.699Z,982.74
2023-05-07T01:11:14.547Z,982.75
2023-05-07T01:12:14.552Z,982.76
2023-05-07T01:13:14.556Z,982.77
2023-05-07T01:14:14.525Z,982.76
2023-05-07T01:15:14.495Z,982.80
2023-05-07T01:16:14.554Z,982.82
2023-05-07T01:17:14.672Z,982.77
2023-05-07T01:18:14.483Z,982.80
2023-05-07T01:19:14.482Z,982.81
2023-05-07T01:20:14.761Z,982.76
2023-05-07T01:21:14.594Z,982.78
2023-05-07T01:22:14.429Z,982.74
2023-05-07T01:23:14.541Z,982.80
2023-05-07T01:24:14.522Z,982.78
2023-05-07T01:25:14.497Z,982.78
2023-05-07T01:26:14.409Z,982.79
2023-05-07T01:27:14.583Z,982.80
2023-05-07T01:28:14.370Z,982.78
2023-05-07T01:29:14.367Z,982.80
2023-05-07T01:30:14.463Z,982.77
2023-05-07T01:31:14.382Z,982.77
2023-05-07T01:32:14.320Z,982.83
2023-05-07T01:33:14.322Z,982.79
2023-05-07T01:34:14.291Z,982.77
2023-05-07T01:35:14.292Z,982.76
2023-05-07T01:36:14.314Z,982.77
2023-05-07T01:37:14.275Z,982.75
2023-05-07T01:38:14.280Z,982.79
2023-05-07T01:39:14.268Z,982.76
2023-05-07T01:40:14.245Z,982.77
2023-05-07T01:41:14.229Z,982.72
2023-05-07T01:42:14.220Z,982.73
2023-05-07T01:43:14.182Z,982.77
2023-05-07T01:44:14.200Z,982.71
2023-05-07T01:45:14.172Z,982.70
2023-05-07T01:46:14.171Z,982.73
2023-05-07T01:47:14.149Z,982.75
2023-05-07T01:48:14.149Z,982.76
2023-05-07T01:49:14.152Z,982.73
2023-05-07T01:50:14.299Z,982.69
2023-05-07T01:51:14.097Z,982.70
2023-05-07T01:52:14.091Z,982.70
2023-05-07T01:53:14.079Z,982.75
2023-05-07T01:54:14.090Z,982.71
2023-05-07T01:55:14.054Z,982.70
2023-05-07T01:56:14.069Z,982.69
2023-05-07T01:57:14.065Z,982.67
2023-05-07T01:58:14.067Z,982.71
2023-05-07T01:59:14.037Z,982.70
2023-05-07T02:00:14.111Z,982.67
2023-05-07T02:01:14.072Z,982.71
2023-05-07T02:02:14.060Z,982.70
2023-05-07T02:03:14.123Z,982.67
2023-05-07T02:04:14.062Z,982.76
2023-05-07T02:05:13.985Z,982.78
2023-05-07T02:06:13.960Z,982.79
2023-05-07T02:07:13.955Z,982.73
2023-05-07T02:08:13.941Z,982.73
2023-05-07T02:09:13.945Z,982.76
2023-05-07T02:10:13.993Z,982.76
2023-05-07T02:11:13.918Z,982.77
2023-05-07T02:12:13.896Z,982.79
2023-05-07T02:13:13.922Z,982.75
2023-05-07T02:14:13.882Z,982.71
2023-05-07T02:15:13.902Z,982.71
2023-05-07T02:16:13.885Z,982.76
2023-05-07T02:17:13.843Z,982.74
2023-05-07T02:18:13.837Z,982.72
2023-05-07T02:19:13.844Z,982.69
2023-05-07T02:20:13.815Z,982.73
2023-05-07T02:21:13.836Z,982.74
2023-05-07T02:22:13.786Z,982.79
2023-05-07T02:23:13.785Z,982.75
2023-05-07T02:24:13.778Z,982.76
2023-05-07T02:25:13.765Z,982.83
2023-05-07T02:26:13.756Z,982.79
2023-05-07T02:27:13.739Z,982.74
2023-05-07T02:28:13.727Z,982.82
2023-05-07T02:29:13.730Z,982.83
2023-05-07T02:30:13.736Z,982.77
2023-05-07T02:31:13.710Z,982.80
2023-05-07T02:32:13.740Z,982.76
2023-05-07T02:33:13.837Z,982.77
2023-05-07T02:34:13.660Z,982.81
2023-05-07T02:35:13.668Z,982.81
2023-05-07T02:36:13.657Z,982.77
2023-05-07T02:37:13.632Z,982.77
2023-05-07T02:38:13.614Z,982.78
2023-05-07T02:39:13.610Z,982.72
2023-05-07T02:40:13.814Z,982.71
2023-05-07T02:41:13.590Z,982.72
2023-05-07T02:42:13.588Z,982.73
2023-05-07T02:43:13.591Z,982.71
2023-05-07T02:44:13.556Z,982.72
2023-05-07T02:45:13.552Z,982.85
2023-05-07T02:46:13.566Z,982.76
2023-05-07T02:47:13.529Z,982.85
2023-05-07T02:48:13.522Z,982.77
2023-05-07T02:49:13.525Z,982.82
2023-05-07T02:50:13.633Z,982.77
2023-05-07T02:51:13.487Z,982.80
2023-05-07T02:52:13.461Z,982.78
2023-05-07T02:53:13.477Z,982.82
2023-05-07T02:54:13.447Z,982.78
2023-05-07T02:55:13.446Z,982.78
2023-05-07T02:56:13.434Z,982.74
2023-05-07T02:57:13.421Z,982.71
2023-05-07T02:58:13.401Z,982.78
2023-05-07T02:59:13.397Z,982.84
2023-05-07T03:00:13.383Z,982.77
2023-05-07T03:01:13.409Z,982.71
2023-05-07T03:02:13.365Z,982.79
2023-05-07T03:03:13.413Z,982.75
2023-05-07T03:04:13.370Z,982.82
2023-05-07T03:05:13.371Z,982.76
2023-05-07T03:06:13.336Z,982.78
2023-05-07T03:07:13.320Z,982.75
2023-05-07T03:08:13.296Z,982.78
2023-05-07T03:09:13.292Z,982.79
2023-05-07T03:10:13.410Z,982.74
2023-05-07T03:11:13.285Z,982.70
2023-05-07T03:12:13.251Z,982.64
2023-05-07T03:13:13.279Z,982.66
2023-05-07T03:14:13.230Z,982.63
2023-05-07T03:15:13.231Z,982.64
2023-05-07T03:16:13.269Z,982.60
2023-05-07T03:17:13.199Z,982.61
2023-05-07T03:18:13.236Z,982.54
2023-05-07T03:19:13.178Z,982.53
2023-05-07T03:20:13.417Z,982.50
2023-05-07T03:21:13.164Z,982.49
2023-05-07T03:22:13.159Z,982.53
2023-05-07T03:23:13.135Z,982.51
2023-05-07T03:24:13.123Z,982.59
2023-05-07T03:25:13.105Z,982.55
2023-05-07T03:26:13.109Z,982.58
2023-05-07T03:27:13.107Z,982.60
2023-05-07T03:28:13.077Z,982.58
2023-05-07T03:29:13.067Z,982.66
2023-05-07T03:30:13.242Z,982.65
2023-05-07T03:31:13.183Z,982.65
2023-05-07T03:32:13.031Z,982.60
2023-05-07T03:33:13.030Z,982.65
2023-05-07T03:34:13.025Z,982.68
2023-05-07T03:35:13.020Z,982.57
2023-05-07T03:36:13.010Z,982.63
2023-05-07T03:37:13.302Z,982.59
2023-05-07T03:38:12.958Z,982.62
2023-05-07T03:39:12.973Z,982.59
2023-05-07T03:40:13.534Z,982.59
2023-05-07T03:41:12.940Z,982.60
2023-05-07T03:42:12.935Z,982.70
2023-05-07T03:43:12.926Z,982.64
2023-05-07T03:44:12.919Z,982.60
2023-05-07T03:45:12.906Z,982.65
2023-05-07T03:46:12.902Z,982.64
2023-05-07T03:47:13.034Z,982.61
2023-05-07T03:48:12.920Z,982.64
2023-05-07T03:49:12.860Z,982.60
2023-05-07T03:50:13.120Z,982.64
2023-05-07T03:51:12.843Z,982.67
2023-05-07T03:52:12.832Z,982.60
2023-05-07T03:53:12.816Z,982.61
2023-05-07T03:54:12.797Z,982.71
2023-05-07T03:55:12.793Z,982.73
2023-05-07T03:56:12.781Z,982.75
2023-05-07T03:57:12.771Z,982.76
2023-05-07T03:58:12.755Z,982.79
2023-05-07T03:59:12.761Z,982.77
2023-05-07T04:00:12.944Z,982.71
2023-05-07T04:01:12.733Z,982.73
2023-05-07T04:02:12.767Z,982.71
2023-05-07T04:03:12.774Z,982.78
2023-05-07T04:04:12.799Z,982.77
2023-05-07T04:05:12.684Z,982.75
2023-05-07T04:06:12.682Z,982.77
2023-05-07T04:07:12.662Z,982.74
2023-05-07T04:08:12.645Z,982.75
2023-05-07T04:09:12.652Z,982.70
2023-05-07T04:10:12.777Z,982.78
2023-05-07T04:11:12.617Z,982.76
2023-05-07T04:12:12.609Z,982.82
2023-05-07T04:13:12.621Z,982.81
2023-05-07T04:14:12.580Z,982.78
2023-05-07T04:15:12.578Z,982.81
2023-05-07T04:16:12.602Z,982.84
2023-05-07T04:17:12.629Z,982.86
2023-05-07T04:18:12.532Z,982.81
2023-05-07T04:19:12.523Z,982.80
2023-05-07T04:20:12.762Z,982.81
2023-05-07T04:21:12.511Z,982.87
2023-05-07T04:22:12.495Z,982.87
2023-05-07T04:23:12.488Z,982.87
2023-05-07T04:24:12.469Z,982.87
2023-05-07T04:25:12.464Z,982.84
2023-05-07T04:26:12.449Z,982.87
2023-05-07T04:27:12.441Z,982.92
2023-05-07T04:28:12.437Z,982.94
2023-05-07T04:29:12.452Z,982.95
2023-05-07T04:30:12.810Z,982.96
2023-05-07T04:31:12.405Z,982.96
2023-05-07T04:32:12.432Z,982.94
2023-05-07T04:33:12.422Z,982.99
2023-05-07T04:34:12.359Z,982.95
2023-05-07T04:35:12.370Z,982.93
2023-05-07T04:36:12.361Z,982.88
2023-05-07T04:37:12.339Z,982.91
2023-05-07T04:38:12.321Z,982.94
2023-05-07T04:39:12.318Z,982.93
2023-05-07T04:40:12.540Z,982.95
2023-05-07T04:41:12.285Z,982.96
2023-05-07T04:42:12.289Z,982.96
2023-05-07T04:43:12.270Z,983.00
2023-05-07T04:44:12.252Z,982.95
2023-05-07T04:45:12.235Z,983.02
2023-05-07T04:46:12.269Z,983.03
2023-05-07T04:47:12.230Z,983.05
2023-05-07T04:48:12.223Z,983.05
2023-05-07T04:49:12.209Z,983.05
2023-05-07T04:50:12.353Z,983.07
2023-05-07T04:51:12.175Z,983.09
2023-05-07T04:52:12.171Z,983.10
2023-05-07T04:53:12.163Z,983.10
2023-05-07T04:54:12.141Z,983.11
2023-05-07T04:55:12.133Z,983.15
2023-05-07T04:56:12.118Z,983.18
2023-05-07T04:57:12.119Z,983.14
2023-05-07T04:58:12.104Z,983.15
2023-05-07T04:59:12.087Z,983.14
2023-05-07T05:00:12.235Z,983.15
2023-05-07T05:01:12.126Z,983.15
2023-05-07T05:02:12.091Z,983.13
2023-05-07T05:03:12.079Z,983.13
2023-05-07T05:04:12.073Z,983.10
2023-05-07T05:05:12.033Z,983.15
2023-05-07T05:06:12.023Z,983.15
2023-05-07T05:07:11.997Z,983.14
2023-05-07T05:08:11.998Z,983.15
2023-05-07T05:09:12.098Z,983.13
2023-05-07T05:10:12.222Z,983.20
2023-05-07T05:11:11.953Z,983.23
2023-05-07T05:12:11.953Z,983.21
2023-05-07T05:13:11.995Z,983.22
2023-05-07T05:14:11.932Z,983.20
2023-05-07T05:15:11.998Z,983.19
2023-05-07T05:16:11.957Z,983.17
2023-05-07T05:17:11.903Z,983.25
2023-05-07T05:18:11.896Z,983.27
2023-05-07T05:19:11.877Z,983.30
2023-05-07T05:20:12.184Z,983.34
2023-05-07T05:21:12.451Z,983.32
2023-05-07T05:22:11.959Z,983.31
2023-05-07T05:23:11.959Z,983.32
2023-05-07T05:24:12.141Z,983.35
2023-05-07T05:25:14.407Z,983.36
2023-05-07T05:26:11.806Z,983.35
2023-05-07T05:27:12.588Z,983.39
2023-05-07T05:28:13.398Z,983.39
2023-05-07T05:29:11.794Z,983.37
2023-05-07T05:30:12.001Z,983.27
2023-05-07T05:31:11.773Z,983.31
2023-05-07T05:32:11.744Z,983.27
2023-05-07T05:33:11.756Z,983.30
2023-05-07T05:34:11.761Z,983.25
2023-05-07T05:35:11.717Z,983.29
2023-05-07T05:36:11.696Z,983.31
2023-05-07T05:37:11.689Z,983.26
2023-05-07T05:38:12.642Z,983.35
2023-05-07T05:39:11.694Z,983.37
2023-05-07T05:40:12.040Z,983.33
2023-05-07T05:41:11.807Z,983.37
2023-05-07T05:42:11.650Z,983.38
2023-05-07T05:43:12.607Z,983.39
2023-05-07T05:44:11.734Z,983.41
2023-05-07T05:45:12.311Z,983.38
2023-05-07T05:46:11.623Z,983.44
2023-05-07T05:47:11.615Z,983.46
2023-05-07T05:48:11.619Z,983.46
2023-05-07T05:49:11.579Z,983.49
2023-05-07T05:50:12.074Z,983.43
2023-05-07T05:51:11.835Z,983.58
2023-05-07T05:52:11.809Z,983.48
2023-05-07T05:53:11.781Z,983.43
2023-05-07T05:54:11.521Z,983.45
2023-05-07T05:55:11.520Z,983.41
2023-05-07T05:56:11.507Z,983.49
2023-05-07T05:57:11.467Z,983.38
2023-05-07T05:58:11.483Z,983.42
2023-05-07T05:59:11.484Z,983.37
2023-05-07T06:00:11.722Z,983.37
2023-05-07T06:01:11.567Z,983.39
2023-05-07T06:02:11.464Z,983.39
2023-05-07T06:03:11.450Z,983.45
2023-05-07T06:04:11.404Z,983.39
2023-05-07T06:05:11.416Z,983.48
2023-05-07T06:06:11.367Z,983.50
2023-05-07T06:07:11.372Z,983.45
2023-05-07T06:08:11.379Z,983.42
2023-05-07T06:09:11.340Z,983.39
2023-05-07T06:10:11.734Z,983.43
2023-05-07T06:11:11.323Z,983.34
2023-05-07T06:12:11.300Z,983.41
2023-05-07T06:13:11.360Z,983.43
2023-05-07T06:14:11.286Z,983.46
2023-05-07T06:15:11.279Z,983.41
2023-05-07T06:16:11.302Z,983.49
2023-05-07T06:17:11.270Z,983.45
2023-05-07T06:18:11.304Z,983.47
2023-05-07T06:19:11.243Z,983.47
2023-05-07T06:20:11.562Z,983.46
2023-05-07T06:21:11.223Z,983.54
2023-05-07T06:22:11.228Z,983.53
2023-05-07T06:23:12.173Z,983.51
2023-05-07T06:24:11.258Z,983.46
2023-05-07T06:25:12.647Z,983.47
2023-05-07T06:26:11.190Z,983.49
2023-05-07T06:27:11.874Z,983.49
2023-05-07T06:28:11.282Z,983.51
2023-05-07T06:29:12.168Z,983.49
2023-05-07T06:30:11.471Z,983.53
2023-05-07T06:31:12.109Z,983.54
2023-05-07T06:32:11.306Z,983.56
2023-05-07T06:33:11.817Z,983.61
2023-05-07T06:34:11.119Z,983.63
2023-05-07T06:35:11.771Z,983.63
2023-05-07T06:36:11.095Z,983.53
2023-05-07T06:37:11.730Z,983.62
2023-05-07T06:38:11.063Z,983.53
2023-05-07T06:39:11.741Z,983.58
2023-05-07T06:40:11.360Z,983.54
2023-05-07T06:41:11.037Z,983.55
2023-05-07T06:42:11.014Z,983.62
2023-05-07T06:43:10.969Z,983.59
2023-05-07T06:44:10.981Z,983.57
2023-05-07T06:45:10.949Z,983.63
2023-05-07T06:46:10.970Z,983.60
2023-05-07T06:47:11.351Z,983.60
2023-05-07T06:48:10.985Z,983.65
2023-05-07T06:49:10.912Z,983.59
2023-05-07T06:50:11.191Z,983.60
2023-05-07T06:51:10.878Z,983.61
2023-05-07T06:52:10.876Z,983.56
2023-05-07T06:53:10.864Z,983.55
2023-05-07T06:54:10.870Z,983.52
2023-05-07T06:55:10.859Z,983.51
2023-05-07T06:56:10.836Z,983.51
2023-05-07T06:57:10.835Z,983.51
2023-05-07T06:58:10.824Z,983.45
2023-05-07T06:59:10.802Z,983.51
2023-05-07T07:00:11.320Z,983.49
2023-05-07T07:01:11.103Z,983.50
2023-05-07T07:02:11.233Z,983.49
2023-05-07T07:03:10.931Z,983.53
2023-05-07T07:04:11.084Z,983.52
2023-05-07T07:05:11.019Z,983.53
2023-05-07T07:06:10.800Z,983.54
2023-05-07T07:07:10.938Z,983.57
2023-05-07T07:08:11.484Z,983.59
2023-05-07T07:09:11.310Z,983.55
2023-05-07T07:10:11.323Z,983.58
2023-05-07T07:11:10.660Z,983.63
2023-05-07T07:12:10.657Z,983.54
2023-05-07T07:13:10.657Z,983.49
2023-05-07T07:14:10.638Z,983.50
2023-05-07T07:15:10.634Z,983.47
2023-05-07T07:16:10.710Z,983.42
2023-05-07T07:17:10.585Z,983.44
2023-05-07T07:18:10.692Z,983.37
2023-05-07T07:19:10.563Z,983.40
2023-05-07T07:20:12.062Z,983.39
2023-05-07T07:21:10.538Z,983.42
2023-05-07T07:22:10.540Z,983.43
2023-05-07T07:23:10.640Z,983.37
2023-05-07T07:24:10.512Z,983.44
2023-05-07T07:25:11.334Z,983.40
2023-05-07T07:26:10.533Z,983.38
2023-05-07T07:27:10.706Z,983.39
2023-05-07T07:28:10.485Z,983.36
2023-05-07T07:29:10.562Z,983.36
2023-05-07T07:30:10.589Z,983.32
2023-05-07T07:31:11.245Z,983.29
2023-05-07T07:32:10.475Z,983.31
2023-05-07T07:33:10.608Z,983.34
2023-05-07T07:34:10.431Z,983.37
2023-05-07T07:35:12.712Z,983.33
2023-05-07T07:36:10.444Z,983.37
2023-05-07T07:37:11.105Z,983.38
2023-05-07T07:38:10.432Z,983.35
2023-05-07T07:39:10.640Z,983.41
2023-05-07T07:40:10.756Z,983.39
2023-05-07T07:41:10.477Z,983.39
2023-05-07T07:42:10.429Z,983.38
2023-05-07T07:43:10.405Z,983.43
2023-05-07T07:44:10.331Z,983.39
2023-05-07T07:45:10.332Z,983.43
2023-05-07T07:46:10.305Z,983.42
2023-05-07T07:47:10.334Z,983.44
2023-05-07T07:48:10.569Z,983.44
2023-05-07T07:49:10.241Z,983.46
2023-05-07T07:50:10.602Z,983.47
2023-05-07T07:51:11.782Z,983.52
2023-05-07T07:52:10.587Z,983.52
2023-05-07T07:53:10.349Z,983.54
2023-05-07T07:54:10.464Z,983.53
2023-05-07T07:55:10.299Z,983.54
2023-05-07T07:56:10.319Z,983.57
2023-05-07T07:57:10.232Z,983.48
2023-05-07T07:58:10.409Z,983.46
2023-05-07T07:59:10.202Z,983.46
2023-05-07T08:00:10.413Z,983.47
2023-05-07T08:01:11.088Z,983.48
2023-05-07T08:02:10.272Z,983.44
2023-05-07T08:03:10.303Z,983.46
2023-05-07T08:04:10.201Z,983.43
2023-05-07T08:05:10.311Z,983.44
2023-05-07T08:06:10.201Z,983.45
2023-05-07T08:07:10.108Z,983.44
2023-05-07T08:08:10.109Z,983.44
2023-05-07T08:09:10.365Z,983.38
2023-05-07T08:10:11.175Z,983.40
2023-05-07T08:11:10.061Z,983.41
2023-05-07T08:12:10.035Z,983.43
2023-05-07T08:13:10.187Z,983.41
2023-05-07T08:14:10.132Z,983.36
2023-05-07T08:15:10.065Z,983.40
2023-05-07T08:16:10.124Z,983.36
2023-05-07T08:17:10.029Z,983.41
2023-05-07T08:18:10.051Z,983.40
2023-05-07T08:19:10.052Z,983.40
2023-05-07T08:20:10.098Z,983.40
2023-05-07T08:21:10.037Z,983.39
2023-05-07T08:22:10.033Z,983.42
2023-05-07T08:23:09.988Z,983.44
2023-05-07T08:24:09.880Z,983.38
2023-05-07T08:25:09.851Z,983.39
2023-05-07T08:26:09.856Z,983.41
2023-05-07T08:27:09.888Z,983.46
2023-05-07T08:28:10.219Z,983.38
2023-05-07T08:29:09.822Z,983.40
2023-05-07T08:30:09.990Z,983.40
2023-05-07T08:31:09.859Z,983.39
2023-05-07T08:32:09.795Z,983.42
2023-05-07T08:33:09.825Z,983.34
2023-05-07T08:34:10.311Z,983.35
2023-05-07T08:35:09.749Z,983.41
2023-05-07T08:36:09.749Z,983.34
2023-05-07T08:37:09.733Z,983.34
2023-05-07T08:38:09.714Z,983.36
2023-05-07T08:39:09.730Z,983.38
2023-05-07T08:40:12.168Z,983.33
2023-05-07T08:41:09.682Z,983.39
2023-05-07T08:42:09.681Z,983.27
2023-05-07T08:43:09.675Z,983.34
2023-05-07T08:44:09.657Z,983.38
2023-05-07T08:45:09.639Z,983.36
2023-05-07T08:46:10.421Z,983.38
2023-05-07T08:47:09.624Z,983.44
2023-05-07T08:48:09.687Z,983.42
2023-05-07T08:49:09.606Z,983.43
2023-05-07T08:50:09.684Z,983.45
2023-05-07T08:51:09.580Z,983.43
2023-05-07T08:52:10.278Z,983.46
2023-05-07T08:53:09.561Z,983.48
2023-05-07T08:54:09.583Z,983.43
2023-05-07T08:55:09.604Z,983.43
2023-05-07T08:56:09.529Z,983.43
2023-05-07T08:57:09.511Z,983.44
2023-05-07T08:58:09.508Z,983.40
2023-05-07T08:59:09.492Z,983.39
2023-05-07T09:00:09.480Z,983.36
2023-05-07T09:01:09.492Z,983.43
2023-05-07T09:02:10.077Z,983.33
2023-05-07T09:03:09.666Z,983.40
2023-05-07T09:04:09.540Z,983.41
2023-05-07T09:05:09.828Z,983.40
2023-05-07T09:06:09.423Z,983.37
2023-05-07T09:07:09.402Z,983.38
2023-05-07T09:08:09.409Z,983.36
2023-05-07T09:09:09.394Z,983.35
2023-05-07T09:10:09.577Z,983.34
2023-05-07T09:11:09.356Z,983.31
2023-05-07T09:12:09.361Z,983.32
2023-05-07T09:13:09.449Z,983.35
2023-05-07T09:14:09.848Z,983.39
2023-05-07T09:15:09.602Z,983.32
2023-05-07T09:16:09.327Z,983.25
2023-05-07T09:17:09.301Z,983.27
2023-05-07T09:18:09.307Z,983.26
2023-05-07T09:19:09.353Z,983.30
2023-05-07T09:20:11.093Z,983.24
2023-05-07T09:21:09.259Z,983.19
2023-05-07T09:22:09.980Z,983.18
2023-05-07T09:23:09.257Z,983.17
2023-05-07T09:24:09.402Z,983.17
2023-05-07T09:25:09.728Z,983.18
2023-05-07T09:26:09.799Z,983.16
2023-05-07T09:27:09.477Z,983.15
2023-05-07T09:28:09.946Z,983.13
2023-05-07T09:29:09.258Z,983.11
2023-05-07T09:30:09.380Z,983.15
2023-05-07T09:31:09.252Z,983.07
2023-05-07T09:32:09.337Z,983.01
2023-05-07T09:33:09.302Z,983.01
2023-05-07T09:34:10.491Z,983.07
2023-05-07T09:35:12.130Z,982.98
2023-05-07T09:36:10.908Z,983.03
2023-05-07T09:37:09.107Z,983.06
2023-05-07T09:38:09.261Z,983.05
2023-05-07T09:39:09.138Z,983.08
2023-05-07T09:40:09.135Z,983.05
2023-05-07T09:41:09.159Z,983.08
2023-05-07T09:42:09.071Z,983.11
2023-05-07T09:43:09.142Z,983.01
2023-05-07T09:44:10.029Z,982.96
2023-05-07T09:45:09.223Z,982.97
2023-05-07T09:46:09.089Z,983.05
2023-05-07T09:47:09.146Z,982.89
2023-05-07T09:48:09.170Z,982.92
2023-05-07T09:50:09.091Z,983.00
2023-05-07T09:51:10.096Z,982.95
2023-05-07T09:52:08.930Z,982.95
2023-05-07T09:53:08.907Z,982.94
2023-05-07T09:54:08.880Z,982.99
2023-05-07T09:55:09.044Z,982.98
2023-05-07T09:56:08.873Z,983.03
2023-05-07T09:57:08.884Z,982.97
2023-05-07T09:58:08.844Z,982.99
2023-05-07T09:59:08.838Z,982.99
2023-05-07T10:00:08.903Z,983.05
2023-05-07T10:01:08.826Z,983.02
2023-05-07T10:02:08.824Z,983.08
2023-05-07T10:03:08.852Z,983.00
2023-05-07T10:04:08.796Z,982.92
2023-05-07T10:05:08.935Z,982.92
2023-05-07T10:06:08.807Z,982.93
2023-05-07T10:07:08.748Z,982.96
2023-05-07T10:08:08.736Z,982.88
2023-05-07T10:09:08.733Z,982.97
2023-05-07T10:10:08.837Z,982.90
2023-05-07T10:11:08.722Z,982.89
2023-05-07T10:12:09.519Z,982.88
2023-05-07T10:13:08.971Z,982.84
2023-05-07T10:14:09.065Z,982.79
2023-05-07T10:15:08.826Z,982.81
2023-05-07T10:16:08.716Z,982.85
2023-05-07T10:17:08.712Z,982.80
2023-05-07T10:18:08.728Z,982.69
2023-05-07T10:19:08.650Z,982.73
2023-05-07T10:20:08.743Z,982.75
2023-05-07T10:21:09.180Z,982.74
2023-05-07T10:22:08.682Z,982.66
2023-05-07T10:23:08.658Z,982.74
2023-05-07T10:24:08.674Z,982.71
2023-05-07T10:25:09.170Z,982.68
2023-05-07T10:26:08.580Z,982.67
2023-05-07T10:27:08.695Z,982.70
2023-05-07T10:28:08.687Z,982.63
2023-05-07T10:29:08.576Z,982.64
2023-05-07T10:30:08.545Z,982.61
2023-05-07T10:31:08.574Z,982.69
2023-05-07T10:32:08.509Z,982.62
2023-05-07T10:33:08.541Z,982.60
2023-05-07T10:34:08.496Z,982.64
2023-05-07T10:35:08.638Z,982.61
2023-05-07T10:36:08.528Z,982.60
2023-05-07T10:37:08.565Z,982.59
2023-05-07T10:38:08.429Z,982.62
2023-05-07T10:39:08.439Z,982.54
2023-05-07T10:40:08.418Z,982.54
2023-05-07T10:41:08.553Z,982.56
2023-05-07T10:42:08.484Z,982.55
2023-05-07T10:43:10.808Z,982.55
2023-05-07T10:44:08.435Z,982.54
2023-05-07T10:45:09.385Z,982.51
2023-05-07T10:46:08.598Z,982.51
2023-05-07T10:47:08.397Z,982.51
2023-05-07T10:48:20.850Z,982.50
2023-05-07T10:49:09.363Z,982.59
2023-05-07T10:50:08.471Z,982.58
2023-05-07T10:51:08.323Z,982.54
2023-05-07T10:52:08.533Z,982.54
2023-05-07T10:53:08.310Z,982.51
2023-05-07T10:54:08.310Z,982.50
2023-05-07T10:55:08.294Z,982.50
2023-05-07T10:56:08.356Z,982.55
2023-05-07T10:57:08.354Z,982.46
2023-05-07T10:58:10.533Z,982.39
2023-05-07T10:59:12.962Z,982.47
2023-05-07T11:00:08.213Z,982.38
2023-05-07T11:01:08.243Z,982.36
2023-05-07T11:02:08.335Z,982.43
2023-05-07T11:03:08.808Z,982.38
2023-05-07T11:04:08.191Z,982.40
2023-05-07T11:05:08.306Z,982.37
2023-05-07T11:06:08.261Z,982.40
2023-05-07T11:07:08.111Z,982.38
2023-05-07T11:08:08.165Z,982.40
2023-05-07T11:09:08.086Z,982.39
2023-05-07T11:10:08.072Z,982.42
2023-05-07T11:11:08.081Z,982.45
2023-05-07T11:12:08.054Z,982.45
2023-05-07T11:13:08.097Z,982.48
2023-05-07T11:14:08.025Z,982.49
2023-05-07T11:15:08.029Z,982.45
2023-05-07T11:16:08.047Z,982.51
2023-05-07T11:17:07.999Z,982.46
2023-05-07T11:18:08.090Z,982.43
2023-05-07T11:19:07.970Z,982.41
2023-05-07T11:20:07.962Z,982.38
2023-05-07T11:21:07.949Z,982.39
2023-05-07T11:22:09.750Z,982.35
2023-05-07T11:23:07.947Z,982.36
2023-05-07T11:24:08.070Z,982.36
2023-05-07T11:25:07.958Z,982.34
2023-05-07T11:26:07.917Z,982.38
2023-05-07T11:27:07.985Z,982.36
2023-05-07T11:28:08.057Z,982.32
2023-05-07T11:29:08.028Z,982.33
2023-05-07T11:30:07.990Z,982.29
2023-05-07T11:31:08.015Z,982.37
2023-05-07T11:32:07.980Z,982.32
2023-05-07T11:33:08.053Z,982.32
2023-05-07T11:34:07.845Z,982.29
2023-05-07T11:35:07.913Z,982.30
2023-05-07T11:36:07.838Z,982.30
2023-05-07T11:37:07.893Z,982.30
2023-05-07T11:38:07.796Z,982.27
2023-05-07T11:39:08.098Z,982.28
2023-05-07T11:40:07.929Z,982.24
2023-05-07T11:41:07.793Z,982.24
2023-05-07T11:42:07.797Z,982.23
2023-05-07T11:43:07.758Z,982.19
2023-05-07T11:44:07.797Z,982.19
2023-05-07T11:45:07.781Z,982.16
2023-05-07T11:46:07.743Z,982.17
2023-05-07T11:47:07.723Z,982.19
2023-05-07T11:48:07.895Z,982.13
2023-05-07T11:49:08.877Z,982.20
2023-05-07T11:50:07.729Z,982.18
2023-05-07T11:51:07.846Z,982.23
2023-05-07T11:52:07.856Z,982.16
2023-05-07T11:53:07.814Z,982.20
2023-05-07T11:54:07.652Z,982.21
2023-05-07T11:55:07.674Z,982.24
2023-05-07T11:56:07.751Z,982.34
2023-05-07T11:57:07.608Z,982.30
2023-05-07T11:58:08.936Z,982.25
2023-05-07T11:59:07.570Z,982.31
2023-05-07T12:00:07.518Z,982.35
2023-05-07T12:01:07.519Z,982.38
2023-05-07T12:02:07.521Z,982.36
2023-05-07T12:03:07.779Z,982.40
2023-05-07T12:04:07.670Z,982.40
2023-05-07T12:05:07.688Z,982.47
2023-05-07T12:06:07.693Z,982.44
2023-05-07T12:07:07.645Z,982.48
2023-05-07T12:08:07.446Z,982.46
2023-05-07T12:09:07.643Z,982.46
2023-05-07T12:10:08.521Z,982.46
2023-05-07T12:11:07.453Z,982.36
2023-05-07T12:12:07.544Z,982.49
2023-05-07T12:13:07.552Z,982.41
2023-05-07T12:14:12.119Z,982.47
2023-05-07T12:15:07.565Z,982.48
2023-05-07T12:16:07.448Z,982.49
2023-05-07T12:17:08.089Z,982.46
2023-05-07T12:18:07.556Z,982.45
2023-05-07T12:19:07.478Z,982.48
2023-05-07T12:20:07.474Z,982.40
2023-05-07T12:21:07.539Z,982.40
2023-05-07T12:22:07.554Z,982.44
2023-05-07T12:23:07.691Z,982.41
2023-05-07T12:24:07.332Z,982.40
2023-05-07T12:25:07.306Z,982.43
2023-05-07T12:26:07.806Z,982.41
2023-05-07T12:27:07.252Z,982.36
2023-05-07T12:28:07.239Z,982.38
2023-05-07T12:29:07.253Z,982.38